sensor_id;sensor_type;location;lat;lon;timestamp;P1;durP1;ratioP1;P2;durP2;ratioP2
42770;SDS011;28426;42.872;25.314;2022-10-31T00:00:00;15.27;;;7.13;;
42770;SDS011;28426;42.872;25.314;2022-10-31T00:02:40;12.55;;;6.22;;
42770;SDS011;28426;42.872;25.314;2022-10-31T00:05:10;11.10;;;5.35;;
42770;SDS011;28426;42.872;25.314;2022-10-31T00:07:41;8.10;;;4.15;;
42770;SDS011;28426;42.872;25.314;2022-10-31T00:10:11;10.57;;;5.35;;
42770;SDS011;28426;42.872;25.314;2022-10-31T00:12:42;11.02;;;5.05;;
42770;SDS011;28426;42.872;25.314;2022-10-31T00:15:12;14.50;;;8.75;;
42770;SDS011;28426;42.872;25.314;2022-10-31T00:17:45;9.25;;;4.53;;
42770;SDS011;28426;42.872;25.314;2022-10-31T00:20:16;9.50;;;4.68;;
42770;SDS011;28426;42.872;25.314;2022-10-31T00:22:46;9.52;;;4.20;;
42770;SDS011;28426;42.872;25.314;2022-10-31T00:25:17;8.48;;;4.38;;
42770;SDS011;28426;42.872;25.314;2022-10-31T00:27:47;11.20;;;4.70;;
42770;SDS011;28426;42.872;25.314;2022-10-31T00:30:18;8.35;;;4.30;;
42770;SDS011;28426;42.872;25.314;2022-10-31T00:32:52;9.88;;;4.07;;
42770;SDS011;28426;42.872;25.314;2022-10-31T00:35:23;8.73;;;3.90;;
42770;SDS011;28426;42.872;25.314;2022-10-31T00:37:54;9.27;;;3.88;;
42770;SDS011;28426;42.872;25.314;2022-10-31T00:40:24;7.03;;;3.72;;
42770;SDS011;28426;42.872;25.314;2022-10-31T00:42:55;7.45;;;2.80;;
42770;SDS011;28426;42.872;25.314;2022-10-31T00:45:26;11.20;;;4.28;;
42770;SDS011;28426;42.872;25.314;2022-10-31T00:47:59;7.78;;;3.70;;
42770;SDS011;28426;42.872;25.314;2022-10-31T00:50:30;8.90;;;3.55;;
42770;SDS011;28426;42.872;25.314;2022-10-31T00:53:00;7.80;;;3.20;;
42770;SDS011;28426;42.872;25.314;2022-10-31T00:55:31;6.07;;;3.05;;
42770;SDS011;28426;42.872;25.314;2022-10-31T00:58:02;6.25;;;3.10;;
42770;SDS011;28426;42.872;25.314;2022-10-31T01:00:33;8.05;;;3.03;;
42770;SDS011;28426;42.872;25.314;2022-10-31T01:03:07;5.57;;;2.75;;
42770;SDS011;28426;42.872;25.314;2022-10-31T01:05:40;8.30;;;4.35;;
42770;SDS011;28426;42.872;25.314;2022-10-31T01:08:11;11.63;;;5.32;;
42770;SDS011;28426;42.872;25.314;2022-10-31T01:10:42;8.23;;;3.40;;
42770;SDS011;28426;42.872;25.314;2022-10-31T01:13:14;7.78;;;3.25;;
42770;SDS011;28426;42.872;25.314;2022-10-31T01:15:44;10.07;;;3.78;;
42770;SDS011;28426;42.872;25.314;2022-10-31T01:18:18;6.60;;;3.00;;
42770;SDS011;28426;42.872;25.314;2022-10-31T01:20:56;9.52;;;3.13;;
42770;SDS011;28426;42.872;25.314;2022-10-31T01:23:28;8.13;;;3.10;;
42770;SDS011;28426;42.872;25.314;2022-10-31T01:26:00;9.30;;;2.80;;
42770;SDS011;28426;42.872;25.314;2022-10-31T01:28:32;6.90;;;3.30;;
42770;SDS011;28426;42.872;25.314;2022-10-31T01:31:04;4.68;;;2.35;;
42770;SDS011;28426;42.872;25.314;2022-10-31T01:33:38;6.50;;;2.42;;
42770;SDS011;28426;42.872;25.314;2022-10-31T01:36:13;7.85;;;3.22;;
42770;SDS011;28426;42.872;25.314;2022-10-31T01:38:49;6.47;;;2.95;;
42770;SDS011;28426;42.872;25.314;2022-10-31T01:41:21;5.85;;;2.60;;
42770;SDS011;28426;42.872;25.314;2022-10-31T01:43:53;7.35;;;2.88;;
42770;SDS011;28426;42.872;25.314;2022-10-31T01:46:25;6.60;;;3.15;;
42770;SDS011;28426;42.872;25.314;2022-10-31T01:49:02;5.35;;;2.83;;
42770;SDS011;28426;42.872;25.314;2022-10-31T01:51:36;10.48;;;3.05;;
42770;SDS011;28426;42.872;25.314;2022-10-31T01:54:10;7.35;;;2.70;;
42770;SDS011;28426;42.872;25.314;2022-10-31T01:56:46;8.43;;;2.67;;
42770;SDS011;28426;42.872;25.314;2022-10-31T01:59:20;7.87;;;3.10;;
42770;SDS011;28426;42.872;25.314;2022-10-31T02:01:54;6.03;;;2.55;;
42770;SDS011;28426;42.872;25.314;2022-10-31T02:04:28;7.35;;;2.67;;
42770;SDS011;28426;42.872;25.314;2022-10-31T02:07:00;7.30;;;2.33;;
42770;SDS011;28426;42.872;25.314;2022-10-31T02:12:06;5.30;;;2.58;;
42770;SDS011;28426;42.872;25.314;2022-10-31T02:14:39;14.02;;;3.85;;
42770;SDS011;28426;42.872;25.314;2022-10-31T02:17:11;5.78;;;2.63;;
42770;SDS011;28426;42.872;25.314;2022-10-31T02:19:46;7.10;;;2.45;;
42770;SDS011;28426;42.872;25.314;2022-10-31T02:22:24;7.45;;;2.92;;
42770;SDS011;28426;42.872;25.314;2022-10-31T02:25:09;7.38;;;2.50;;
42770;SDS011;28426;42.872;25.314;2022-10-31T02:27:58;7.28;;;2.30;;
42770;SDS011;28426;42.872;25.314;2022-10-31T02:31:01;6.80;;;2.58;;
42770;SDS011;28426;42.872;25.314;2022-10-31T02:33:43;9.25;;;2.78;;
42770;SDS011;28426;42.872;25.314;2022-10-31T02:36:20;10.30;;;2.67;;
42770;SDS011;28426;42.872;25.314;2022-10-31T02:38:58;5.68;;;2.65;;
42770;SDS011;28426;42.872;25.314;2022-10-31T02:41:43;8.60;;;3.08;;
42770;SDS011;28426;42.872;25.314;2022-10-31T02:44:21;6.78;;;2.88;;
42770;SDS011;28426;42.872;25.314;2022-10-31T02:47:01;8.60;;;2.90;;
42770;SDS011;28426;42.872;25.314;2022-10-31T02:49:37;6.88;;;2.88;;
42770;SDS011;28426;42.872;25.314;2022-10-31T02:52:13;5.18;;;2.53;;
42770;SDS011;28426;42.872;25.314;2022-10-31T02:54:47;7.05;;;3.13;;
42770;SDS011;28426;42.872;25.314;2022-10-31T02:57:19;6.88;;;2.53;;
42770;SDS011;28426;42.872;25.314;2022-10-31T02:59:55;5.70;;;3.00;;
42770;SDS011;28426;42.872;25.314;2022-10-31T03:02:42;7.10;;;2.78;;
42770;SDS011;28426;42.872;25.314;2022-10-31T03:05:32;4.28;;;2.50;;
42770;SDS011;28426;42.872;25.314;2022-10-31T03:08:23;9.27;;;3.00;;
42770;SDS011;28426;42.872;25.314;2022-10-31T03:11:00;8.20;;;2.97;;
42770;SDS011;28426;42.872;25.314;2022-10-31T03:13:34;6.47;;;2.72;;
42770;SDS011;28426;42.872;25.314;2022-10-31T03:16:10;7.80;;;2.88;;
42770;SDS011;28426;42.872;25.314;2022-10-31T03:18:49;6.70;;;2.72;;
42770;SDS011;28426;42.872;25.314;2022-10-31T03:21:23;8.07;;;3.53;;
42770;SDS011;28426;42.872;25.314;2022-10-31T03:23:58;8.35;;;3.90;;
42770;SDS011;28426;42.872;25.314;2022-10-31T03:26:30;8.35;;;4.47;;
42770;SDS011;28426;42.872;25.314;2022-10-31T03:29:02;8.48;;;4.75;;
42770;SDS011;28426;42.872;25.314;2022-10-31T03:31:39;11.90;;;5.10;;
42770;SDS011;28426;42.872;25.314;2022-10-31T03:34:18;9.63;;;5.55;;
42770;SDS011;28426;42.872;25.314;2022-10-31T03:36:52;13.30;;;4.70;;
42770;SDS011;28426;42.872;25.314;2022-10-31T03:39:27;11.50;;;5.47;;
42770;SDS011;28426;42.872;25.314;2022-10-31T03:41:59;10.38;;;5.30;;
42770;SDS011;28426;42.872;25.314;2022-10-31T03:44:34;11.50;;;4.85;;
42770;SDS011;28426;42.872;25.314;2022-10-31T03:47:07;8.02;;;4.97;;
42770;SDS011;28426;42.872;25.314;2022-10-31T03:49:41;14.15;;;5.53;;
42770;SDS011;28426;42.872;25.314;2022-10-31T03:52:13;12.52;;;5.90;;
42770;SDS011;28426;42.872;25.314;2022-10-31T03:54:51;12.88;;;5.53;;
42770;SDS011;28426;42.872;25.314;2022-10-31T03:57:30;10.85;;;4.50;;
42770;SDS011;28426;42.872;25.314;2022-10-31T04:00:06;8.57;;;4.10;;
42770;SDS011;28426;42.872;25.314;2022-10-31T04:02:46;8.00;;;3.25;;
42770;SDS011;28426;42.872;25.314;2022-10-31T04:05:24;5.75;;;3.00;;
42770;SDS011;28426;42.872;25.314;2022-10-31T04:07:59;12.73;;;3.40;;
42770;SDS011;28426;42.872;25.314;2022-10-31T04:10:32;7.13;;;3.10;;
42770;SDS011;28426;42.872;25.314;2022-10-31T04:13:05;6.93;;;3.47;;
42770;SDS011;28426;42.872;25.314;2022-10-31T04:15:47;6.20;;;3.17;;
42770;SDS011;28426;42.872;25.314;2022-10-31T04:18:22;8.93;;;3.42;;
42770;SDS011;28426;42.872;25.314;2022-10-31T04:21:02;8.85;;;4.03;;
42770;SDS011;28426;42.872;25.314;2022-10-31T04:23:34;8.18;;;3.40;;
42770;SDS011;28426;42.872;25.314;2022-10-31T04:26:28;13.00;;;3.50;;
42770;SDS011;28426;42.872;25.314;2022-10-31T04:28:59;7.68;;;3.47;;
42770;SDS011;28426;42.872;25.314;2022-10-31T04:31:31;6.82;;;3.05;;
42770;SDS011;28426;42.872;25.314;2022-10-31T04:34:02;8.05;;;3.28;;
42770;SDS011;28426;42.872;25.314;2022-10-31T04:36:36;8.02;;;3.28;;
42770;SDS011;28426;42.872;25.314;2022-10-31T04:39:07;10.82;;;3.35;;
42770;SDS011;28426;42.872;25.314;2022-10-31T04:41:43;6.05;;;3.20;;
42770;SDS011;28426;42.872;25.314;2022-10-31T04:44:14;8.60;;;3.13;;
42770;SDS011;28426;42.872;25.314;2022-10-31T04:46:49;8.95;;;3.38;;
42770;SDS011;28426;42.872;25.314;2022-10-31T04:49:19;9.25;;;4.53;;
42770;SDS011;28426;42.872;25.314;2022-10-31T04:51:53;12.98;;;4.28;;
42770;SDS011;28426;42.872;25.314;2022-10-31T04:54:23;14.82;;;5.43;;
42770;SDS011;28426;42.872;25.314;2022-10-31T04:56:54;8.90;;;5.07;;
42770;SDS011;28426;42.872;25.314;2022-10-31T04:59:28;7.90;;;4.60;;
42770;SDS011;28426;42.872;25.314;2022-10-31T05:01:59;12.82;;;4.55;;
42770;SDS011;28426;42.872;25.314;2022-10-31T05:04:44;10.65;;;5.68;;
42770;SDS011;28426;42.872;25.314;2022-10-31T05:07:17;10.43;;;5.43;;
42770;SDS011;28426;42.872;25.314;2022-10-31T05:09:48;9.60;;;4.15;;
42770;SDS011;28426;42.872;25.314;2022-10-31T05:12:19;10.18;;;4.50;;
42770;SDS011;28426;42.872;25.314;2022-10-31T05:15:16;13.75;;;4.25;;
42770;SDS011;28426;42.872;25.314;2022-10-31T05:18:06;9.07;;;4.63;;
42770;SDS011;28426;42.872;25.314;2022-10-31T05:20:56;8.60;;;4.63;;
42770;SDS011;28426;42.872;25.314;2022-10-31T05:23:36;9.55;;;4.57;;
42770;SDS011;28426;42.872;25.314;2022-10-31T05:26:14;10.20;;;4.63;;
42770;SDS011;28426;42.872;25.314;2022-10-31T05:28:46;12.73;;;4.65;;
42770;SDS011;28426;42.872;25.314;2022-10-31T05:31:16;12.88;;;5.80;;
42770;SDS011;28426;42.872;25.314;2022-10-31T05:33:49;21.05;;;8.23;;
42770;SDS011;28426;42.872;25.314;2022-10-31T05:36:51;14.60;;;7.30;;
42770;SDS011;28426;42.872;25.314;2022-10-31T05:39:25;17.30;;;8.13;;
42770;SDS011;28426;42.872;25.314;2022-10-31T05:42:00;20.58;;;7.82;;
42770;SDS011;28426;42.872;25.314;2022-10-31T05:44:30;20.10;;;9.55;;
42770;SDS011;28426;42.872;25.314;2022-10-31T05:47:24;18.73;;;9.02;;
42770;SDS011;28426;42.872;25.314;2022-10-31T05:49:55;23.45;;;11.32;;
42770;SDS011;28426;42.872;25.314;2022-10-31T05:52:34;31.35;;;12.25;;
42770;SDS011;28426;42.872;25.314;2022-10-31T05:55:37;11.85;;;5.57;;
42770;SDS011;28426;42.872;25.314;2022-10-31T05:58:11;12.07;;;4.65;;
42770;SDS011;28426;42.872;25.314;2022-10-31T06:00:49;14.32;;;5.93;;
42770;SDS011;28426;42.872;25.314;2022-10-31T06:03:19;15.65;;;5.22;;
42770;SDS011;28426;42.872;25.314;2022-10-31T06:05:55;13.63;;;4.72;;
42770;SDS011;28426;42.872;25.314;2022-10-31T06:08:36;13.48;;;4.70;;
42770;SDS011;28426;42.872;25.314;2022-10-31T06:11:15;10.73;;;5.38;;
42770;SDS011;28426;42.872;25.314;2022-10-31T06:14:01;14.20;;;5.68;;
42770;SDS011;28426;42.872;25.314;2022-10-31T06:16:43;15.70;;;6.10;;
42770;SDS011;28426;42.872;25.314;2022-10-31T06:19:36;16.08;;;5.88;;
42770;SDS011;28426;42.872;25.314;2022-10-31T06:22:09;11.85;;;5.70;;
42770;SDS011;28426;42.872;25.314;2022-10-31T06:24:42;17.38;;;6.03;;
42770;SDS011;28426;42.872;25.314;2022-10-31T06:27:36;9.55;;;5.75;;
42770;SDS011;28426;42.872;25.314;2022-10-31T06:30:13;11.88;;;6.00;;
42770;SDS011;28426;42.872;25.314;2022-10-31T06:32:45;12.77;;;5.88;;
42770;SDS011;28426;42.872;25.314;2022-10-31T06:35:16;12.75;;;6.70;;
42770;SDS011;28426;42.872;25.314;2022-10-31T06:37:50;11.73;;;5.13;;
42770;SDS011;28426;42.872;25.314;2022-10-31T06:40:37;18.67;;;6.10;;
42770;SDS011;28426;42.872;25.314;2022-10-31T06:43:24;15.35;;;5.18;;
42770;SDS011;28426;42.872;25.314;2022-10-31T06:46:15;15.02;;;4.82;;
42770;SDS011;28426;42.872;25.314;2022-10-31T06:48:58;10.30;;;4.82;;
42770;SDS011;28426;42.872;25.314;2022-10-31T06:51:49;18.85;;;6.75;;
42770;SDS011;28426;42.872;25.314;2022-10-31T06:54:20;14.45;;;5.88;;
42770;SDS011;28426;42.872;25.314;2022-10-31T06:56:52;14.20;;;4.80;;
42770;SDS011;28426;42.872;25.314;2022-10-31T06:59:25;13.85;;;4.75;;
42770;SDS011;28426;42.872;25.314;2022-10-31T07:02:15;15.98;;;4.70;;
42770;SDS011;28426;42.872;25.314;2022-10-31T07:04:48;15.82;;;4.80;;
42770;SDS011;28426;42.872;25.314;2022-10-31T07:07:18;13.07;;;4.32;;
42770;SDS011;28426;42.872;25.314;2022-10-31T07:09:50;14.23;;;4.50;;
42770;SDS011;28426;42.872;25.314;2022-10-31T07:12:35;10.60;;;4.88;;
42770;SDS011;28426;42.872;25.314;2022-10-31T07:15:09;17.77;;;5.28;;
42770;SDS011;28426;42.872;25.314;2022-10-31T07:17:39;18.23;;;4.72;;
42770;SDS011;28426;42.872;25.314;2022-10-31T07:20:10;9.60;;;4.32;;
42770;SDS011;28426;42.872;25.314;2022-10-31T07:22:41;14.25;;;5.03;;
42770;SDS011;28426;42.872;25.314;2022-10-31T07:25:16;14.73;;;5.03;;
42770;SDS011;28426;42.872;25.314;2022-10-31T07:28:06;15.05;;;5.90;;
42770;SDS011;28426;42.872;25.314;2022-10-31T07:30:41;15.98;;;6.65;;
42770;SDS011;28426;42.872;25.314;2022-10-31T07:33:12;15.02;;;5.10;;
42770;SDS011;28426;42.872;25.314;2022-10-31T07:36:18;12.82;;;4.22;;
42770;SDS011;28426;42.872;25.314;2022-10-31T07:38:51;17.02;;;4.93;;
42770;SDS011;28426;42.872;25.314;2022-10-31T07:41:21;17.98;;;6.93;;
42770;SDS011;28426;42.872;25.314;2022-10-31T07:43:53;16.95;;;5.40;;
42770;SDS011;28426;42.872;25.314;2022-10-31T07:46:45;12.05;;;5.57;;
42770;SDS011;28426;42.872;25.314;2022-10-31T07:49:41;24.55;;;6.53;;
42770;SDS011;28426;42.872;25.314;2022-10-31T07:52:30;11.30;;;5.20;;
42770;SDS011;28426;42.872;25.314;2022-10-31T07:55:19;13.35;;;5.00;;
42770;SDS011;28426;42.872;25.314;2022-10-31T07:57:55;18.55;;;4.93;;
42770;SDS011;28426;42.872;25.314;2022-10-31T08:00:27;14.98;;;4.95;;
42770;SDS011;28426;42.872;25.314;2022-10-31T08:03:02;10.63;;;4.72;;
42770;SDS011;28426;42.872;25.314;2022-10-31T08:05:55;13.13;;;3.30;;
42770;SDS011;28426;42.872;25.314;2022-10-31T08:08:55;9.18;;;4.43;;
42770;SDS011;28426;42.872;25.314;2022-10-31T08:11:26;12.30;;;3.75;;
42770;SDS011;28426;42.872;25.314;2022-10-31T08:13:57;19.77;;;4.38;;
42770;SDS011;28426;42.872;25.314;2022-10-31T08:16:28;10.75;;;3.58;;
42770;SDS011;28426;42.872;25.314;2022-10-31T08:19:04;13.80;;;3.60;;
42770;SDS011;28426;42.872;25.314;2022-10-31T08:21:37;10.05;;;3.55;;
42770;SDS011;28426;42.872;25.314;2022-10-31T08:24:08;15.27;;;3.72;;
42770;SDS011;28426;42.872;25.314;2022-10-31T08:26:40;11.70;;;3.55;;
42770;SDS011;28426;42.872;25.314;2022-10-31T08:29:11;17.02;;;3.97;;
42770;SDS011;28426;42.872;25.314;2022-10-31T08:31:42;9.75;;;3.83;;
42770;SDS011;28426;42.872;25.314;2022-10-31T08:34:34;10.55;;;4.25;;
42770;SDS011;28426;42.872;25.314;2022-10-31T08:37:37;13.65;;;4.05;;
42770;SDS011;28426;42.872;25.314;2022-10-31T08:40:08;10.93;;;3.40;;
42770;SDS011;28426;42.872;25.314;2022-10-31T08:42:40;7.97;;;3.90;;
42770;SDS011;28426;42.872;25.314;2022-10-31T08:45:11;8.93;;;3.47;;
42770;SDS011;28426;42.872;25.314;2022-10-31T08:47:42;11.60;;;3.47;;
42770;SDS011;28426;42.872;25.314;2022-10-31T08:50:15;10.02;;;3.75;;
42770;SDS011;28426;42.872;25.314;2022-10-31T08:52:46;9.73;;;4.03;;
42770;SDS011;28426;42.872;25.314;2022-10-31T08:55:33;11.40;;;4.22;;
42770;SDS011;28426;42.872;25.314;2022-10-31T08:58:11;10.43;;;4.35;;
42770;SDS011;28426;42.872;25.314;2022-10-31T09:00:49;14.32;;;3.72;;
42770;SDS011;28426;42.872;25.314;2022-10-31T09:03:22;10.50;;;3.72;;
42770;SDS011;28426;42.872;25.314;2022-10-31T09:05:57;9.52;;;3.90;;
42770;SDS011;28426;42.872;25.314;2022-10-31T09:08:30;10.93;;;3.90;;
42770;SDS011;28426;42.872;25.314;2022-10-31T09:11:02;16.13;;;4.75;;
42770;SDS011;28426;42.872;25.314;2022-10-31T09:13:52;9.10;;;4.38;;
42770;SDS011;28426;42.872;25.314;2022-10-31T09:16:43;11.25;;;5.00;;
42770;SDS011;28426;42.872;25.314;2022-10-31T09:19:20;11.60;;;5.28;;
42770;SDS011;28426;42.872;25.314;2022-10-31T09:21:54;13.10;;;4.90;;
42770;SDS011;28426;42.872;25.314;2022-10-31T09:24:25;12.30;;;4.35;;
42770;SDS011;28426;42.872;25.314;2022-10-31T09:26:56;11.25;;;4.15;;
42770;SDS011;28426;42.872;25.314;2022-10-31T09:29:28;9.55;;;4.50;;
42770;SDS011;28426;42.872;25.314;2022-10-31T09:32:00;11.02;;;5.20;;
42770;SDS011;28426;42.872;25.314;2022-10-31T09:34:36;12.38;;;4.90;;
42770;SDS011;28426;42.872;25.314;2022-10-31T09:37:15;17.02;;;6.00;;
42770;SDS011;28426;42.872;25.314;2022-10-31T09:39:45;8.30;;;4.20;;
42770;SDS011;28426;42.872;25.314;2022-10-31T09:42:35;8.77;;;3.95;;
42770;SDS011;28426;42.872;25.314;2022-10-31T09:45:21;9.07;;;4.00;;
42770;SDS011;28426;42.872;25.314;2022-10-31T09:48:09;9.23;;;3.88;;
42770;SDS011;28426;42.872;25.314;2022-10-31T09:51:04;19.08;;;5.13;;
42770;SDS011;28426;42.872;25.314;2022-10-31T09:54:02;13.95;;;4.82;;
42770;SDS011;28426;42.872;25.314;2022-10-31T09:56:36;11.25;;;4.45;;
42770;SDS011;28426;42.872;25.314;2022-10-31T09:59:11;9.23;;;3.90;;
42770;SDS011;28426;42.872;25.314;2022-10-31T10:01:55;9.98;;;4.20;;
42770;SDS011;28426;42.872;25.314;2022-10-31T10:04:42;8.90;;;4.35;;
42770;SDS011;28426;42.872;25.314;2022-10-31T10:07:21;9.57;;;3.80;;
42770;SDS011;28426;42.872;25.314;2022-10-31T10:10:33;11.70;;;4.13;;
42770;SDS011;28426;42.872;25.314;2022-10-31T10:13:48;15.73;;;4.10;;
42770;SDS011;28426;42.872;25.314;2022-10-31T10:16:31;14.18;;;4.82;;
42770;SDS011;28426;42.872;25.314;2022-10-31T10:19:16;11.88;;;4.05;;
42770;SDS011;28426;42.872;25.314;2022-10-31T10:21:58;11.82;;;3.60;;
42770;SDS011;28426;42.872;25.314;2022-10-31T10:24:41;7.40;;;3.25;;
42770;SDS011;28426;42.872;25.314;2022-10-31T10:27:30;13.88;;;3.78;;
42770;SDS011;28426;42.872;25.314;2022-10-31T10:30:13;18.48;;;4.70;;
42770;SDS011;28426;42.872;25.314;2022-10-31T10:32:46;7.27;;;3.07;;
42770;SDS011;28426;42.872;25.314;2022-10-31T10:35:22;10.63;;;3.70;;
42770;SDS011;28426;42.872;25.314;2022-10-31T10:37:56;10.63;;;3.28;;
42770;SDS011;28426;42.872;25.314;2022-10-31T10:40:32;9.88;;;3.95;;
42770;SDS011;28426;42.872;25.314;2022-10-31T10:43:10;8.93;;;2.95;;
42770;SDS011;28426;42.872;25.314;2022-10-31T10:45:53;7.13;;;3.08;;
42770;SDS011;28426;42.872;25.314;2022-10-31T10:48:47;12.65;;;3.60;;
42770;SDS011;28426;42.872;25.314;2022-10-31T10:51:31;12.98;;;3.20;;
42770;SDS011;28426;42.872;25.314;2022-10-31T10:54:40;10.48;;;3.00;;
42770;SDS011;28426;42.872;25.314;2022-10-31T10:57:19;9.75;;;3.00;;
42770;SDS011;28426;42.872;25.314;2022-10-31T11:00:15;10.07;;;2.75;;
42770;SDS011;28426;42.872;25.314;2022-10-31T11:02:48;11.05;;;3.60;;
42770;SDS011;28426;42.872;25.314;2022-10-31T11:05:23;6.25;;;2.67;;
42770;SDS011;28426;42.872;25.314;2022-10-31T11:07:57;9.68;;;2.90;;
42770;SDS011;28426;42.872;25.314;2022-10-31T11:10:28;11.25;;;3.45;;
42770;SDS011;28426;42.872;25.314;2022-10-31T11:13:17;6.55;;;2.53;;
42770;SDS011;28426;42.872;25.314;2022-10-31T11:15:57;9.38;;;2.60;;
42770;SDS011;28426;42.872;25.314;2022-10-31T11:18:30;7.10;;;2.58;;
42770;SDS011;28426;42.872;25.314;2022-10-31T11:21:02;5.88;;;2.58;;
42770;SDS011;28426;42.872;25.314;2022-10-31T11:23:34;10.30;;;2.70;;
42770;SDS011;28426;42.872;25.314;2022-10-31T11:26:05;6.80;;;2.42;;
42770;SDS011;28426;42.872;25.314;2022-10-31T11:28:55;8.25;;;3.20;;
42770;SDS011;28426;42.872;25.314;2022-10-31T11:31:31;7.38;;;2.67;;
42770;SDS011;28426;42.872;25.314;2022-10-31T11:34:05;11.68;;;3.00;;
42770;SDS011;28426;42.872;25.314;2022-10-31T11:36:43;7.60;;;2.90;;
42770;SDS011;28426;42.872;25.314;2022-10-31T11:39:16;13.63;;;3.60;;
42770;SDS011;28426;42.872;25.314;2022-10-31T11:41:50;14.10;;;3.60;;
42770;SDS011;28426;42.872;25.314;2022-10-31T11:44:22;8.82;;;2.92;;
42770;SDS011;28426;42.872;25.314;2022-10-31T11:46:58;14.68;;;3.70;;
42770;SDS011;28426;42.872;25.314;2022-10-31T11:52:04;10.18;;;2.90;;
42770;SDS011;28426;42.872;25.314;2022-10-31T11:54:38;7.65;;;2.67;;
42770;SDS011;28426;42.872;25.314;2022-10-31T11:57:25;12.15;;;3.15;;
42770;SDS011;28426;42.872;25.314;2022-10-31T11:59:57;9.73;;;3.30;;
42770;SDS011;28426;42.872;25.314;2022-10-31T12:02:40;12.50;;;2.90;;
42770;SDS011;28426;42.872;25.314;2022-10-31T12:05:16;10.45;;;3.08;;
42770;SDS011;28426;42.872;25.314;2022-10-31T12:07:49;6.28;;;2.40;;
42770;SDS011;28426;42.872;25.314;2022-10-31T12:10:21;7.57;;;2.50;;
42770;SDS011;28426;42.872;25.314;2022-10-31T12:13:00;10.80;;;2.42;;
42770;SDS011;28426;42.872;25.314;2022-10-31T12:15:38;10.13;;;3.03;;
42770;SDS011;28426;42.872;25.314;2022-10-31T12:18:32;7.57;;;2.65;;
42770;SDS011;28426;42.872;25.314;2022-10-31T12:21:23;8.60;;;2.80;;
42770;SDS011;28426;42.872;25.314;2022-10-31T12:24:08;9.07;;;2.55;;
42770;SDS011;28426;42.872;25.314;2022-10-31T12:26:50;10.20;;;2.58;;
42770;SDS011;28426;42.872;25.314;2022-10-31T12:29:33;7.60;;;3.00;;
42770;SDS011;28426;42.872;25.314;2022-10-31T12:32:28;7.95;;;2.30;;
42770;SDS011;28426;42.872;25.314;2022-10-31T12:35:24;8.77;;;2.47;;
42770;SDS011;28426;42.872;25.314;2022-10-31T12:38:10;9.52;;;2.42;;
42770;SDS011;28426;42.872;25.314;2022-10-31T12:41:06;6.13;;;2.42;;
42770;SDS011;28426;42.872;25.314;2022-10-31T12:43:55;11.20;;;3.17;;
42770;SDS011;28426;42.872;25.314;2022-10-31T12:46:37;8.63;;;2.75;;
42770;SDS011;28426;42.872;25.314;2022-10-31T12:49:27;23.70;;;3.47;;
42770;SDS011;28426;42.872;25.314;2022-10-31T12:55:21;6.20;;;2.75;;
42770;SDS011;28426;42.872;25.314;2022-10-31T12:58:03;11.05;;;2.83;;
42770;SDS011;28426;42.872;25.314;2022-10-31T13:00:39;15.68;;;3.85;;
42770;SDS011;28426;42.872;25.314;2022-10-31T13:03:19;9.45;;;3.17;;
42770;SDS011;28426;42.872;25.314;2022-10-31T13:05:57;12.05;;;2.70;;
42770;SDS011;28426;42.872;25.314;2022-10-31T13:08:38;7.55;;;2.70;;
42770;SDS011;28426;42.872;25.314;2022-10-31T13:11:14;10.77;;;2.80;;
42770;SDS011;28426;42.872;25.314;2022-10-31T13:13:49;6.72;;;2.60;;
42770;SDS011;28426;42.872;25.314;2022-10-31T13:16:28;5.65;;;2.17;;
42770;SDS011;28426;42.872;25.314;2022-10-31T13:19:10;10.00;;;3.42;;
42770;SDS011;28426;42.872;25.314;2022-10-31T13:21:49;7.15;;;2.50;;
42770;SDS011;28426;42.872;25.314;2022-10-31T13:24:30;11.65;;;3.15;;
42770;SDS011;28426;42.872;25.314;2022-10-31T13:27:07;6.13;;;2.30;;
42770;SDS011;28426;42.872;25.314;2022-10-31T13:29:44;12.20;;;3.05;;
42770;SDS011;28426;42.872;25.314;2022-10-31T13:32:23;6.40;;;2.30;;
42770;SDS011;28426;42.872;25.314;2022-10-31T13:34:56;13.60;;;3.67;;
42770;SDS011;28426;42.872;25.314;2022-10-31T13:37:30;9.75;;;2.97;;
42770;SDS011;28426;42.872;25.314;2022-10-31T13:40:10;11.55;;;3.35;;
42770;SDS011;28426;42.872;25.314;2022-10-31T13:42:53;20.95;;;3.97;;
42770;SDS011;28426;42.872;25.314;2022-10-31T13:45:28;9.27;;;3.50;;
42770;SDS011;28426;42.872;25.314;2022-10-31T13:47:59;10.55;;;2.75;;
42770;SDS011;28426;42.872;25.314;2022-10-31T13:50:32;6.70;;;2.72;;
42770;SDS011;28426;42.872;25.314;2022-10-31T13:53:12;14.55;;;3.22;;
42770;SDS011;28426;42.872;25.314;2022-10-31T13:56:02;10.75;;;3.17;;
42770;SDS011;28426;42.872;25.314;2022-10-31T13:58:56;11.80;;;3.30;;
42770;SDS011;28426;42.872;25.314;2022-10-31T14:01:30;9.85;;;3.35;;
42770;SDS011;28426;42.872;25.314;2022-10-31T14:04:03;16.83;;;3.88;;
42770;SDS011;28426;42.872;25.314;2022-10-31T14:06:43;19.25;;;5.60;;
42770;SDS011;28426;42.872;25.314;2022-10-31T14:09:24;12.27;;;3.90;;
42770;SDS011;28426;42.872;25.314;2022-10-31T14:12:04;14.07;;;3.95;;
42770;SDS011;28426;42.872;25.314;2022-10-31T14:14:44;8.98;;;3.85;;
42770;SDS011;28426;42.872;25.314;2022-10-31T14:17:20;9.82;;;4.15;;
42770;SDS011;28426;42.872;25.314;2022-10-31T14:20:00;12.20;;;3.97;;
42770;SDS011;28426;42.872;25.314;2022-10-31T14:22:33;14.48;;;4.38;;
42770;SDS011;28426;42.872;25.314;2022-10-31T14:28:18;12.65;;;4.45;;
42770;SDS011;28426;42.872;25.314;2022-10-31T14:30:53;19.08;;;5.57;;
42770;SDS011;28426;42.872;25.314;2022-10-31T14:33:25;22.05;;;6.05;;
42770;SDS011;28426;42.872;25.314;2022-10-31T14:35:58;21.10;;;6.35;;
42770;SDS011;28426;42.872;25.314;2022-10-31T14:38:40;12.77;;;4.57;;
42770;SDS011;28426;42.872;25.314;2022-10-31T14:41:29;21.52;;;4.93;;
42770;SDS011;28426;42.872;25.314;2022-10-31T14:44:24;10.18;;;3.95;;
42770;SDS011;28426;42.872;25.314;2022-10-31T14:47:16;12.75;;;3.90;;
42770;SDS011;28426;42.872;25.314;2022-10-31T14:50:06;14.68;;;4.03;;
42770;SDS011;28426;42.872;25.314;2022-10-31T14:52:49;18.98;;;4.47;;
42770;SDS011;28426;42.872;25.314;2022-10-31T14:55:23;13.63;;;5.03;;
42770;SDS011;28426;42.872;25.314;2022-10-31T14:57:57;12.60;;;4.15;;
42770;SDS011;28426;42.872;25.314;2022-10-31T15:00:32;11.10;;;4.00;;
42770;SDS011;28426;42.872;25.314;2022-10-31T15:03:06;13.82;;;4.10;;
42770;SDS011;28426;42.872;25.314;2022-10-31T15:05:46;14.20;;;5.10;;
42770;SDS011;28426;42.872;25.314;2022-10-31T15:08:27;18.13;;;5.32;;
42770;SDS011;28426;42.872;25.314;2022-10-31T15:11:11;20.55;;;4.50;;
42770;SDS011;28426;42.872;25.314;2022-10-31T15:13:43;19.98;;;5.38;;
42770;SDS011;28426;42.872;25.314;2022-10-31T15:16:19;20.48;;;4.78;;
42770;SDS011;28426;42.872;25.314;2022-10-31T15:18:52;20.92;;;5.20;;
42770;SDS011;28426;42.872;25.314;2022-10-31T15:21:24;21.38;;;5.20;;
42770;SDS011;28426;42.872;25.314;2022-10-31T15:23:57;27.58;;;5.88;;
42770;SDS011;28426;42.872;25.314;2022-10-31T15:26:32;25.20;;;5.78;;
42770;SDS011;28426;42.872;25.314;2022-10-31T15:29:11;29.42;;;6.13;;
42770;SDS011;28426;42.872;25.314;2022-10-31T15:31:51;28.55;;;6.82;;
42770;SDS011;28426;42.872;25.314;2022-10-31T15:34:25;18.25;;;7.15;;
42770;SDS011;28426;42.872;25.314;2022-10-31T15:37:00;30.48;;;8.30;;
42770;SDS011;28426;42.872;25.314;2022-10-31T15:39:31;17.83;;;6.60;;